sensor_id;sensor_type;location;lat;lon;timestamp;temperature;humidity
5136;DHT22;2586;48.710;9.202;2023-02-08T00:01:56;-2.80;99.90
5136;DHT22;2586;48.710;9.202;2023-02-08T00:04:22;-2.80;99.90
5136;DHT22;2586;48.710;9.202;2023-02-08T00:06:47;-2.90;99.90
5136;DHT22;2586;48.710;9.202;2023-02-08T00:09:13;-3.00;99.90
5136;DHT22;2586;48.710;9.202;2023-02-08T00:11:38;-3.00;99.90
5136;DHT22;2586;48.710;9.202;2023-02-08T00:14:04;-3.00;99.90
5136;DHT22;2586;48.710;9.202;2023-02-08T00:16:30;-3.00;99.90
5136;DHT22;2586;48.710;9.202;2023-02-08T00:18:55;-3.00;99.90
5136;DHT22;2586;48.710;9.202;2023-02-08T00:21:21;-3.00;99.90
5136;DHT22;2586;48.710;9.202;2023-02-08T00:23:47;-3.00;99.90
5136;DHT22;2586;48.710;9.202;2023-02-08T00:26:13;-2.90;99.90
5136;DHT22;2586;48.710;9.202;2023-02-08T00:28:39;-3.10;99.90
5136;DHT22;2586;48.710;9.202;2023-02-08T00:31:05;-3.10;99.90
5136;DHT22;2586;48.710;9.202;2023-02-08T00:33:31;-3.10;99.90
5136;DHT22;2586;48.710;9.202;2023-02-08T00:35:58;-3.10;99.90
5136;DHT22;2586;48.710;9.202;2023-02-08T00:38:24;-3.10;99.90
5136;DHT22;2586;48.710;9.202;2023-02-08T00:40:50;-3.10;99.90
5136;DHT22;2586;48.710;9.202;2023-02-08T00:43:15;-3.10;99.90
5136;DHT22;2586;48.710;9.202;2023-02-08T00:45:41;-3.10;99.90
5136;DHT22;2586;48.710;9.202;2023-02-08T00:48:06;-3.10;99.90
5136;DHT22;2586;48.710;9.202;2023-02-08T00:50:32;-3.10;99.90
5136;DHT22;2586;48.710;9.202;2023-02-08T00:52:58;-3.20;99.90
5136;DHT22;2586;48.710;9.202;2023-02-08T00:55:24;-3.20;99.90
5136;DHT22;2586;48.710;9.202;2023-02-08T00:57:50;-3.20;99.90
5136;DHT22;2586;48.710;9.202;2023-02-08T01:00:15;-3.20;99.90
5136;DHT22;2586;48.710;9.202;2023-02-08T01:02:41;-3.20;99.90
5136;DHT22;2586;48.710;9.202;2023-02-08T01:05:07;-3.30;99.90
5136;DHT22;2586;48.710;9.202;2023-02-08T01:07:37;-3.40;99.90
5136;DHT22;2586;48.710;9.202;2023-02-08T01:10:07;-3.60;99.90
5136;DHT22;2586;48.710;9.202;2023-02-08T01:12:36;-3.60;99.90
5136;DHT22;2586;48.710;9.202;2023-02-08T01:15:02;-3.80;99.90
5136;DHT22;2586;48.710;9.202;2023-02-08T01:17:28;-3.90;99.90
5136;DHT22;2586;48.710;9.202;2023-02-08T01:19:53;-3.80;99.90
5136;DHT22;2586;48.710;9.202;2023-02-08T01:22:19;-3.90;99.90
5136;DHT22;2586;48.710;9.202;2023-02-08T01:24:44;-3.90;99.90
5136;DHT22;2586;48.710;9.202;2023-02-08T01:27:10;-3.90;99.90
5136;DHT22;2586;48.710;9.202;2023-02-08T01:29:36;-3.90;99.90
5136;DHT22;2586;48.710;9.202;2023-02-08T01:32:01;-3.90;1.00
5136;DHT22;2586;48.710;9.202;2023-02-08T01:34:27;-3.90;99.90
5136;DHT22;2586;48.710;9.202;2023-02-08T01:36:52;-3.80;99.90
5136;DHT22;2586;48.710;9.202;2023-02-08T01:39:18;-3.80;99.90
5136;DHT22;2586;48.710;9.202;2023-02-08T01:41:44;-3.80;99.90
5136;DHT22;2586;48.710;9.202;2023-02-08T01:46:47;-3.90;99.90
5136;DHT22;2586;48.710;9.202;2023-02-08T01:49:31;-3.90;99.90
5136;DHT22;2586;48.710;9.202;2023-02-08T01:54:29;-3.90;99.90
5136;DHT22;2586;48.710;9.202;2023-02-08T01:56:57;-3.80;99.90
5136;DHT22;2586;48.710;9.202;2023-02-08T01:59:27;-3.80;99.90
5136;DHT22;2586;48.710;9.202;2023-02-08T02:01:55;-3.80;99.90
5136;DHT22;2586;48.710;9.202;2023-02-08T02:04:22;-3.80;99.90
5136;DHT22;2586;48.710;9.202;2023-02-08T02:06:52;-3.70;99.90
5136;DHT22;2586;48.710;9.202;2023-02-08T02:09:32;-3.70;99.90
5136;DHT22;2586;48.710;9.202;2023-02-08T02:12:01;-3.70;99.90
5136;DHT22;2586;48.710;9.202;2023-02-08T02:14:27;-3.60;99.90
5136;DHT22;2586;48.710;9.202;2023-02-08T02:16:52;-3.60;99.90
5136;DHT22;2586;48.710;9.202;2023-02-08T02:19:47;-3.60;99.90
5136;DHT22;2586;48.710;9.202;2023-02-08T02:22:30;-3.50;99.90
5136;DHT22;2586;48.710;9.202;2023-02-08T02:28:38;-3.50;99.90
5136;DHT22;2586;48.710;9.202;2023-02-08T02:34:09;-3.50;99.90
5136;DHT22;2586;48.710;9.202;2023-02-08T02:45:38;-3.40;99.90
5136;DHT22;2586;48.710;9.202;2023-02-08T02:48:21;-3.40;99.90
5136;DHT22;2586;48.710;9.202;2023-02-08T02:51:12;-3.30;99.90
5136;DHT22;2586;48.710;9.202;2023-02-08T02:54:00;-3.30;99.90
5136;DHT22;2586;48.710;9.202;2023-02-08T02:56:33;-3.30;99.90
5136;DHT22;2586;48.710;9.202;2023-02-08T02:59:04;-3.30;99.90
5136;DHT22;2586;48.710;9.202;2023-02-08T03:01:31;-3.40;99.90
5136;DHT22;2586;48.710;9.202;2023-02-08T03:03:57;-3.50;99.90
5136;DHT22;2586;48.710;9.202;2023-02-08T03:11:56;-3.90;99.90
5136;DHT22;2586;48.710;9.202;2023-02-08T03:20:11;-4.00;99.90
5136;DHT22;2586;48.710;9.202;2023-02-08T03:22:44;-4.00;99.90
5136;DHT22;2586;48.710;9.202;2023-02-08T03:28:06;-4.00;99.90
5136;DHT22;2586;48.710;9.202;2023-02-08T03:30:56;-3.90;99.90
5136;DHT22;2586;48.710;9.202;2023-02-08T03:33:28;-3.90;99.90
5136;DHT22;2586;48.710;9.202;2023-02-08T03:36:04;-3.90;99.90
5136;DHT22;2586;48.710;9.202;2023-02-08T03:38:38;-3.90;99.90
5136;DHT22;2586;48.710;9.202;2023-02-08T03:41:07;-3.80;99.90
5136;DHT22;2586;48.710;9.202;2023-02-08T03:43:41;-3.70;99.90
5136;DHT22;2586;48.710;9.202;2023-02-08T03:46:25;-3.70;99.90
5136;DHT22;2586;48.710;9.202;2023-02-08T03:48:57;-3.60;99.90
5136;DHT22;2586;48.710;9.202;2023-02-08T03:51:25;-3.50;99.90
5136;DHT22;2586;48.710;9.202;2023-02-08T03:53:53;-3.50;99.90
5136;DHT22;2586;48.710;9.202;2023-02-08T03:56:26;-3.50;99.90
5136;DHT22;2586;48.710;9.202;2023-02-08T03:59:04;-3.50;99.90
5136;DHT22;2586;48.710;9.202;2023-02-08T04:01:37;-3.50;99.90
5136;DHT22;2586;48.710;9.202;2023-02-08T04:04:03;-3.50;99.90
5136;DHT22;2586;48.710;9.202;2023-02-08T04:06:29;-3.50;99.90
5136;DHT22;2586;48.710;9.202;2023-02-08T04:08:55;-3.50;99.90
5136;DHT22;2586;48.710;9.202;2023-02-08T04:11:21;-3.50;99.90
5136;DHT22;2586;48.710;9.202;2023-02-08T04:13:46;-3.50;99.90
5136;DHT22;2586;48.710;9.202;2023-02-08T04:16:12;-3.50;99.90
5136;DHT22;2586;48.710;9.202;2023-02-08T04:18:38;-3.50;99.90
5136;DHT22;2586;48.710;9.202;2023-02-08T04:21:04;-3.60;99.90
5136;DHT22;2586;48.710;9.202;2023-02-08T04:23:29;-3.60;99.90
5136;DHT22;2586;48.710;9.202;2023-02-08T04:25:55;-3.60;99.90
5136;DHT22;2586;48.710;9.202;2023-02-08T04:28:21;-3.60;99.90
5136;DHT22;2586;48.710;9.202;2023-02-08T04:30:46;-3.60;99.90
5136;DHT22;2586;48.710;9.202;2023-02-08T04:33:12;-3.60;99.90
5136;DHT22;2586;48.710;9.202;2023-02-08T04:35:40;-3.60;99.90
5136;DHT22;2586;48.710;9.202;2023-02-08T04:38:06;-3.70;99.90
5136;DHT22;2586;48.710;9.202;2023-02-08T04:40:31;-3.70;99.90
5136;DHT22;2586;48.710;9.202;2023-02-08T04:42:57;-3.70;99.90
5136;DHT22;2586;48.710;9.202;2023-02-08T04:45:23;-3.70;99.90
5136;DHT22;2586;48.710;9.202;2023-02-08T04:47:49;-3.70;99.90
5136;DHT22;2586;48.710;9.202;2023-02-08T04:50:15;-3.70;99.90
5136;DHT22;2586;48.710;9.202;2023-02-08T04:52:41;-3.70;99.90
5136;DHT22;2586;48.710;9.202;2023-02-08T04:55:07;-3.80;99.90
5136;DHT22;2586;48.710;9.202;2023-02-08T04:57:32;-3.80;99.90
5136;DHT22;2586;48.710;9.202;2023-02-08T04:59:58;-3.80;99.90
5136;DHT22;2586;48.710;9.202;2023-02-08T05:02:24;-3.90;99.90
5136;DHT22;2586;48.710;9.202;2023-02-08T05:04:49;-3.90;99.90
5136;DHT22;2586;48.710;9.202;2023-02-08T05:07:15;-3.90;99.90
5136;DHT22;2586;48.710;9.202;2023-02-08T05:09:40;-4.00;99.90
5136;DHT22;2586;48.710;9.202;2023-02-08T05:12:06;-4.00;99.90
5136;DHT22;2586;48.710;9.202;2023-02-08T05:14:32;-4.00;99.90
5136;DHT22;2586;48.710;9.202;2023-02-08T05:16:57;-4.00;99.90
5136;DHT22;2586;48.710;9.202;2023-02-08T05:19:23;-4.00;99.90
5136;DHT22;2586;48.710;9.202;2023-02-08T05:21:48;-4.10;99.90
5136;DHT22;2586;48.710;9.202;2023-02-08T05:24:14;-4.10;99.90
5136;DHT22;2586;48.710;9.202;2023-02-08T05:26:40;-4.10;99.90
5136;DHT22;2586;48.710;9.202;2023-02-08T05:29:05;-4.10;99.90
5136;DHT22;2586;48.710;9.202;2023-02-08T05:31:31;-4.10;99.90
5136;DHT22;2586;48.710;9.202;2023-02-08T05:33:57;-4.10;99.90
5136;DHT22;2586;48.710;9.202;2023-02-08T05:36:22;-4.10;99.90
5136;DHT22;2586;48.710;9.202;2023-02-08T05:38:48;-4.10;99.90
5136;DHT22;2586;48.710;9.202;2023-02-08T05:41:14;-4.20;99.90
5136;DHT22;2586;48.710;9.202;2023-02-08T05:43:39;-4.10;99.90
5136;DHT22;2586;48.710;9.202;2023-02-08T05:46:06;-4.20;99.90
5136;DHT22;2586;48.710;9.202;2023-02-08T05:48:32;-4.20;99.90
5136;DHT22;2586;48.710;9.202;2023-02-08T05:50:58;-4.20;99.90
5136;DHT22;2586;48.710;9.202;2023-02-08T05:53:24;-4.20;99.90
5136;DHT22;2586;48.710;9.202;2023-02-08T05:55:49;-4.20;99.90
5136;DHT22;2586;48.710;9.202;2023-02-08T05:58:16;-4.20;99.90
5136;DHT22;2586;48.710;9.202;2023-02-08T06:00:42;-4.20;99.90
5136;DHT22;2586;48.710;9.202;2023-02-08T06:03:07;-4.30;99.90
5136;DHT22;2586;48.710;9.202;2023-02-08T06:05:33;-4.20;99.90
5136;DHT22;2586;48.710;9.202;2023-02-08T06:08:01;-4.30;99.90
5136;DHT22;2586;48.710;9.202;2023-02-08T06:10:27;-4.30;99.90
5136;DHT22;2586;48.710;9.202;2023-02-08T06:12:52;-4.30;99.90
5136;DHT22;2586;48.710;9.202;2023-02-08T06:15:18;-4.20;99.90
5136;DHT22;2586;48.710;9.202;2023-02-08T06:17:43;-4.20;99.90
5136;DHT22;2586;48.710;9.202;2023-02-08T06:20:09;-4.20;99.90
5136;DHT22;2586;48.710;9.202;2023-02-08T06:22:35;-4.20;99.90
5136;DHT22;2586;48.710;9.202;2023-02-08T06:25:00;-4.20;99.90
5136;DHT22;2586;48.710;9.202;2023-02-08T06:27:26;-4.30;99.90
5136;DHT22;2586;48.710;9.202;2023-02-08T06:29:52;-4.20;99.90
5136;DHT22;2586;48.710;9.202;2023-02-08T06:32:17;-4.30;99.90
5136;DHT22;2586;48.710;9.202;2023-02-08T06:34:43;-4.20;99.90
5136;DHT22;2586;48.710;9.202;2023-02-08T06:37:09;-4.30;99.90
5136;DHT22;2586;48.710;9.202;2023-02-08T06:39:34;-4.20;99.90
5136;DHT22;2586;48.710;9.202;2023-02-08T06:42:00;-4.30;99.90
5136;DHT22;2586;48.710;9.202;2023-02-08T06:44:25;-4.30;99.90
5136;DHT22;2586;48.710;9.202;2023-02-08T06:46:51;-4.30;99.90
5136;DHT22;2586;48.710;9.202;2023-02-08T06:49:17;-4.30;99.90
5136;DHT22;2586;48.710;9.202;2023-02-08T06:51:43;-4.20;99.90
5136;DHT22;2586;48.710;9.202;2023-02-08T06:54:08;-4.20;99.90
5136;DHT22;2586;48.710;9.202;2023-02-08T06:56:35;-4.20;99.90
5136;DHT22;2586;48.710;9.202;2023-02-08T06:59:00;-4.20;99.90
5136;DHT22;2586;48.710;9.202;2023-02-08T07:01:26;-4.10;99.90
5136;DHT22;2586;48.710;9.202;2023-02-08T07:03:51;-4.10;99.90
5136;DHT22;2586;48.710;9.202;2023-02-08T07:06:18;-4.00;99.90
5136;DHT22;2586;48.710;9.202;2023-02-08T07:08:45;-4.00;99.90
5136;DHT22;2586;48.710;9.202;2023-02-08T07:11:14;-3.90;99.90
5136;DHT22;2586;48.710;9.202;2023-02-08T07:13:40;-3.80;99.90
5136;DHT22;2586;48.710;9.202;2023-02-08T07:16:06;-3.50;99.90
5136;DHT22;2586;48.710;9.202;2023-02-08T07:18:33;-3.30;99.90
5136;DHT22;2586;48.710;9.202;2023-02-08T07:20:58;-3.00;99.90
5136;DHT22;2586;48.710;9.202;2023-02-08T07:23:24;-2.70;99.90
5136;DHT22;2586;48.710;9.202;2023-02-08T07:26:01;-2.40;99.90
5136;DHT22;2586;48.710;9.202;2023-02-08T07:28:27;-2.40;99.90
5136;DHT22;2586;48.710;9.202;2023-02-08T07:30:53;-2.40;99.90
5136;DHT22;2586;48.710;9.202;2023-02-08T07:33:19;-2.30;92.10
5136;DHT22;2586;48.710;9.202;2023-02-08T07:35:45;-2.30;77.00
5136;DHT22;2586;48.710;9.202;2023-02-08T07:38:10;-2.20;67.10
5136;DHT22;2586;48.710;9.202;2023-02-08T07:40:36;-2.20;55.50
5136;DHT22;2586;48.710;9.202;2023-02-08T07:43:02;-1.90;51.60
5136;DHT22;2586;48.710;9.202;2023-02-08T07:45:27;-1.70;47.40
5136;DHT22;2586;48.710;9.202;2023-02-08T07:47:53;-1.50;38.90
5136;DHT22;2586;48.710;9.202;2023-02-08T07:50:18;-1.30;31.20
5136;DHT22;2586;48.710;9.202;2023-02-08T07:52:44;-1.30;27.50
5136;DHT22;2586;48.710;9.202;2023-02-08T07:55:12;-1.10;27.50
5136;DHT22;2586;48.710;9.202;2023-02-08T07:57:48;-0.80;20.50
5136;DHT22;2586;48.710;9.202;2023-02-08T08:00:16;-0.50;17.10
5136;DHT22;2586;48.710;9.202;2023-02-08T08:02:42;-0.40;10.80
5136;DHT22;2586;48.710;9.202;2023-02-08T08:05:09;-0.30;3.70
5136;DHT22;2586;48.710;9.202;2023-02-08T08:07:36;-0.10;1.00
5136;DHT22;2586;48.710;9.202;2023-02-08T08:10:03;-0.10;1.00
5136;DHT22;2586;48.710;9.202;2023-02-08T08:12:28;0.20;1.00
5136;DHT22;2586;48.710;9.202;2023-02-08T08:14:54;0.40;1.00
5136;DHT22;2586;48.710;9.202;2023-02-08T08:17:19;0.60;1.00
5136;DHT22;2586;48.710;9.202;2023-02-08T08:19:45;0.50;1.00
5136;DHT22;2586;48.710;9.202;2023-02-08T08:22:11;0.70;1.00
5136;DHT22;2586;48.710;9.202;2023-02-08T08:24:36;0.80;1.00
5136;DHT22;2586;48.710;9.202;2023-02-08T08:27:04;1.10;1.00
5136;DHT22;2586;48.710;9.202;2023-02-08T08:29:35;1.20;1.00
5136;DHT22;2586;48.710;9.202;2023-02-08T08:32:01;1.30;1.00
5136;DHT22;2586;48.710;9.202;2023-02-08T08:34:27;1.40;1.00
5136;DHT22;2586;48.710;9.202;2023-02-08T08:36:56;1.50;1.00
5136;DHT22;2586;48.710;9.202;2023-02-08T08:39:23;1.60;1.00
5136;DHT22;2586;48.710;9.202;2023-02-08T08:42:00;1.70;1.00
5136;DHT22;2586;48.710;9.202;2023-02-08T08:44:28;1.60;1.00
5136;DHT22;2586;48.710;9.202;2023-02-08T08:46:55;1.80;1.00
5136;DHT22;2586;48.710;9.202;2023-02-08T08:49:21;2.10;1.00
5136;DHT22;2586;48.710;9.202;2023-02-08T08:51:47;2.30;1.00
5136;DHT22;2586;48.710;9.202;2023-02-08T08:54:13;2.50;1.00
5136;DHT22;2586;48.710;9.202;2023-02-08T08:56:39;2.50;1.00
5136;DHT22;2586;48.710;9.202;2023-02-08T08:59:04;2.40;1.00
5136;DHT22;2586;48.710;9.202;2023-02-08T09:01:30;2.60;1.00
5136;DHT22;2586;48.710;9.202;2023-02-08T09:03:55;2.60;1.00
5136;DHT22;2586;48.710;9.202;2023-02-08T09:06:21;2.90;1.00
5136;DHT22;2586;48.710;9.202;2023-02-08T09:08:47;2.90;1.00
5136;DHT22;2586;48.710;9.202;2023-02-08T09:11:14;3.00;1.00
5136;DHT22;2586;48.710;9.202;2023-02-08T09:13:40;3.20;1.00
5136;DHT22;2586;48.710;9.202;2023-02-08T09:16:15;3.20;1.00
5136;DHT22;2586;48.710;9.202;2023-02-08T09:18:42;3.30;1.00
5136;DHT22;2586;48.710;9.202;2023-02-08T09:21:13;3.50;1.00
5136;DHT22;2586;48.710;9.202;2023-02-08T09:23:39;3.50;1.00
5136;DHT22;2586;48.710;9.202;2023-02-08T09:26:06;3.40;1.00
5136;DHT22;2586;48.710;9.202;2023-02-08T09:28:33;3.60;1.00
5136;DHT22;2586;48.710;9.202;2023-02-08T09:31:05;3.80;1.00
5136;DHT22;2586;48.710;9.202;2023-02-08T09:33:31;3.80;1.00
5136;DHT22;2586;48.710;9.202;2023-02-08T09:35:57;4.20;1.00
5136;DHT22;2586;48.710;9.202;2023-02-08T09:38:22;4.40;1.00
5136;DHT22;2586;48.710;9.202;2023-02-08T09:43:38;4.80;1.00
5136;DHT22;2586;48.710;9.202;2023-02-08T09:46:18;4.80;1.00
5136;DHT22;2586;48.710;9.202;2023-02-08T09:48:45;5.00;1.00
5136;DHT22;2586;48.710;9.202;2023-02-08T09:51:23;5.40;1.00
5136;DHT22;2586;48.710;9.202;2023-02-08T09:53:57;5.60;1.00
5136;DHT22;2586;48.710;9.202;2023-02-08T09:56:30;5.30;1.00
5136;DHT22;2586;48.710;9.202;2023-02-08T09:58:59;5.30;1.00
5136;DHT22;2586;48.710;9.202;2023-02-08T10:01:28;5.10;1.00
5136;DHT22;2586;48.710;9.202;2023-02-08T10:06:42;4.90;1.00
5136;DHT22;2586;48.710;9.202;2023-02-08T10:09:12;5.10;1.00
5136;DHT22;2586;48.710;9.202;2023-02-08T10:11:49;5.40;1.00
5136;DHT22;2586;48.710;9.202;2023-02-08T10:27:41;6.10;1.00
5136;DHT22;2586;48.710;9.202;2023-02-08T10:30:25;6.20;1.00
5136;DHT22;2586;48.710;9.202;2023-02-08T10:33:16;6.40;1.00
5136;DHT22;2586;48.710;9.202;2023-02-08T10:35:47;6.30;1.00
5136;DHT22;2586;48.710;9.202;2023-02-08T10:38:22;6.10;1.00
5136;DHT22;2586;48.710;9.202;2023-02-08T10:40:58;6.30;1.00
5136;DHT22;2586;48.710;9.202;2023-02-08T10:46:23;6.90;1.00
5136;DHT22;2586;48.710;9.202;2023-02-08T10:51:34;7.10;1.00
5136;DHT22;2586;48.710;9.202;2023-02-08T10:54:00;7.50;1.00
5136;DHT22;2586;48.710;9.202;2023-02-08T10:58:57;7.10;1.00
5136;DHT22;2586;48.710;9.202;2023-02-08T11:01:25;7.10;1.00
5136;DHT22;2586;48.710;9.202;2023-02-08T11:04:09;7.70;1.00
5136;DHT22;2586;48.710;9.202;2023-02-08T11:06:36;7.90;1.00
5136;DHT22;2586;48.710;9.202;2023-02-08T11:09:03;7.50;1.00
5136;DHT22;2586;48.710;9.202;2023-02-08T11:11:37;7.00;1.00
5136;DHT22;2586;48.710;9.202;2023-02-08T11:14:16;7.20;1.00
5136;DHT22;2586;48.710;9.202;2023-02-08T11:16:51;7.70;1.00
5136;DHT22;2586;48.710;9.202;2023-02-08T11:19:37;7.90;1.00
5136;DHT22;2586;48.710;9.202;2023-02-08T11:22:15;7.80;1.00
5136;DHT22;2586;48.710;9.202;2023-02-08T11:24:41;8.40;1.00
5136;DHT22;2586;48.710;9.202;2023-02-08T11:32:42;9.00;1.00
5136;DHT22;2586;48.710;9.202;2023-02-08T11:35:18;9.10;1.00
5136;DHT22;2586;48.710;9.202;2023-02-08T11:37:50;8.90;1.00
5136;DHT22;2586;48.710;9.202;2023-02-08T11:40:33;9.10;1.00
5136;DHT22;2586;48.710;9.202;2023-02-08T11:43:00;9.20;1.00
5136;DHT22;2586;48.710;9.202;2023-02-08T11:45:31;9.70;1.00
5136;DHT22;2586;48.710;9.202;2023-02-08T11:47:58;9.70;1.00
5136;DHT22;2586;48.710;9.202;2023-02-08T11:50:37;9.80;1.00
5136;DHT22;2586;48.710;9.202;2023-02-08T11:53:27;10.00;1.00
5136;DHT22;2586;48.710;9.202;2023-02-08T11:56:06;9.70;1.00
5136;DHT22;2586;48.710;9.202;2023-02-08T11:58:32;10.40;1.00
5136;DHT22;2586;48.710;9.202;2023-02-08T12:01:05;10.90;1.00
5136;DHT22;2586;48.710;9.202;2023-02-08T12:03:36;11.20;1.00
5136;DHT22;2586;48.710;9.202;2023-02-08T12:11:43;10.00;1.00
5136;DHT22;2586;48.710;9.202;2023-02-08T12:14:21;9.50;1.00
5136;DHT22;2586;48.710;9.202;2023-02-08T12:17:04;8.80;1.00
5136;DHT22;2586;48.710;9.202;2023-02-08T12:19:58;8.50;1.00
5136;DHT22;2586;48.710;9.202;2023-02-08T12:22:29;9.00;1.00
5136;DHT22;2586;48.710;9.202;2023-02-08T12:28:01;9.30;1.00
5136;DHT22;2586;48.710;9.202;2023-02-08T12:30:31;9.40;1.00
5136;DHT22;2586;48.710;9.202;2023-02-08T12:33:17;9.30;1.00
5136;DHT22;2586;48.710;9.202;2023-02-08T12:36:04;9.30;1.00
5136;DHT22;2586;48.710;9.202;2023-02-08T12:44:40;9.80;1.00
5136;DHT22;2586;48.710;9.202;2023-02-08T12:50:02;9.40;1.00
5136;DHT22;2586;48.710;9.202;2023-02-08T12:52:49;9.90;1.00
5136;DHT22;2586;48.710;9.202;2023-02-08T12:55:21;10.40;1.00
5136;DHT22;2586;48.710;9.202;2023-02-08T12:57:51;11.00;1.00
5136;DHT22;2586;48.710;9.202;2023-02-08T13:00:21;11.10;1.00
5136;DHT22;2586;48.710;9.202;2023-02-08T13:05:27;11.00;1.00
5136;DHT22;2586;48.710;9.202;2023-02-08T13:08:03;11.60;1.00
5136;DHT22;2586;48.710;9.202;2023-02-08T13:10:38;11.80;1.00
5136;DHT22;2586;48.710;9.202;2023-02-08T13:15:40;10.80;1.00
5136;DHT22;2586;48.710;9.202;2023-02-08T13:18:26;11.10;1.00
5136;DHT22;2586;48.710;9.202;2023-02-08T13:23:35;11.50;1.00
5136;DHT22;2586;48.710;9.202;2023-02-08T13:26:06;12.00;1.00
5136;DHT22;2586;48.710;9.202;2023-02-08T13:28:33;11.30;1.00
5136;DHT22;2586;48.710;9.202;2023-02-08T13:31:02;10.90;1.00
5136;DHT22;2586;48.710;9.202;2023-02-08T13:33:44;11.20;1.00
5136;DHT22;2586;48.710;9.202;2023-02-08T13:36:28;11.60;1.00
5136;DHT22;2586;48.710;9.202;2023-02-08T13:38:56;11.20;1.00
5136;DHT22;2586;48.710;9.202;2023-02-08T13:41:24;11.90;1.00
5136;DHT22;2586;48.710;9.202;2023-02-08T13:46:18;12.40;1.00
5136;DHT22;2586;48.710;9.202;2023-02-08T13:56:44;11.30;1.00
5136;DHT22;2586;48.710;9.202;2023-02-08T13:59:47;11.70;1.00
5136;DHT22;2586;48.710;9.202;2023-02-08T14:02:30;12.30;1.00
5136;DHT22;2586;48.710;9.202;2023-02-08T14:14:16;11.60;1.00
5136;DHT22;2586;48.710;9.202;2023-02-08T14:16:45;11.90;1.00
5136;DHT22;2586;48.710;9.202;2023-02-08T14:19:32;11.90;1.00
5136;DHT22;2586;48.710;9.202;2023-02-08T14:22:18;10.00;1.00
5136;DHT22;2586;48.710;9.202;2023-02-08T14:24:58;10.80;1.00
5136;DHT22;2586;48.710;9.202;2023-02-08T14:27:41;11.20;1.00
5136;DHT22;2586;48.710;9.202;2023-02-08T14:35:30;11.30;1.00
5136;DHT22;2586;48.710;9.202;2023-02-08T14:41:01;11.60;1.00
5136;DHT22;2586;48.710;9.202;2023-02-08T14:45:53;11.70;1.00
5136;DHT22;2586;48.710;9.202;2023-02-08T14:48:41;12.00;1.00
5136;DHT22;2586;48.710;9.202;2023-02-08T14:53:51;11.80;1.00
5136;DHT22;2586;48.710;9.202;2023-02-08T14:56:24;11.60;1.00
5136;DHT22;2586;48.710;9.202;2023-02-08T14:58:56;11.60;1.00
5136;DHT22;2586;48.710;9.202;2023-02-08T15:04:07;10.70;1.00
5136;DHT22;2586;48.710;9.202;2023-02-08T15:09:23;9.60;1.00
5136;DHT22;2586;48.710;9.202;2023-02-08T15:12:28;9.10;1.00
5136;DHT22;2586;48.710;9.202;2023-02-08T15:14:57;9.20;1.00
5136;DHT22;2586;48.710;9.202;2023-02-08T15:17:36;9.00;1.00
5136;DHT22;2586;48.710;9.202;2023-02-08T15:20:06;8.40;1.00
5136;DHT22;2586;48.710;9.202;2023-02-08T15:22:37;8.50;1.00
5136;DHT22;2586;48.710;9.202;2023-02-08T15:25:27;8.30;1.00
5136;DHT22;2586;48.710;9.202;2023-02-08T15:27:57;7.90;1.00
5136;DHT22;2586;48.710;9.202;2023-02-08T15:30:24;7.40;1.00
5136;DHT22;2586;48.710;9.202;2023-02-08T15:32:49;7.10;1.00
5136;DHT22;2586;48.710;9.202;2023-02-08T15:35:17;7.00;1.00
5136;DHT22;2586;48.710;9.202;2023-02-08T15:37:45;7.30;1.00
5136;DHT22;2586;48.710;9.202;2023-02-08T15:40:23;7.20;1.00
5136;DHT22;2586;48.710;9.202;2023-02-08T15:42:48;6.90;1.00
5136;DHT22;2586;48.710;9.202;2023-02-08T15:45:29;6.80;1.00
5136;DHT22;2586;48.710;9.202;2023-02-08T15:47:55;6.20;1.00
5136;DHT22;2586;48.710;9.202;2023-02-08T15:50:22;5.70;1.00
5136;DHT22;2586;48.710;9.202;2023-02-08T15:52:51;5.60;1.00
5136;DHT22;2586;48.710;9.202;2023-02-08T15:55:18;5.30;1.00
5136;DHT22;2586;48.710;9.202;2023-02-08T15:57:58;4.70;1.00
5136;DHT22;2586;48.710;9.202;2023-02-08T16:00:31;4.10;1.00
5136;DHT22;2586;48.710;9.202;2023-02-08T16:03:14;3.60;1.00
5136;DHT22;2586;48.710;9.202;2023-02-08T16:05:51;3.30;1.00
5136;DHT22;2586;48.710;9.202;2023-02-08T16:08:24;2.90;1.00
5136;DHT22;2586;48.710;9.202;2023-02-08T16:11:02;2.80;1.00
5136;DHT22;2586;48.710;9.202;2023-02-08T16:13:33;2.60;1.00
5136;DHT22;2586;48.710;9.202;2023-02-08T16:18:58;2.30;1.00
5136;DHT22;2586;48.710;9.202;2023-02-08T16:21:26;2.10;1.00
5136;DHT22;2586;48.710;9.202;2023-02-08T16:23:55;1.90;1.00
5136;DHT22;2586;48.710;9.202;2023-02-08T16:26:30;1.80;1.00
5136;DHT22;2586;48.710;9.202;2023-02-08T16:29:02;1.70;1.00
5136;DHT22;2586;48.710;9.202;2023-02-08T16:31:30;1.60;1.00
5136;DHT22;2586;48.710;9.202;2023-02-08T16:34:04;1.50;1.00
5136;DHT22;2586;48.710;9.202;2023-02-08T16:36:38;1.40;1.00
5136;DHT22;2586;48.710;9.202;2023-02-08T16:44:26;1.10;1.00
5136;DHT22;2586;48.710;9.202;2023-02-08T16:46:52;1.00;1.00
5136;DHT22;2586;48.710;9.202;2023-02-08T16:49:18;0.90;1.00
5136;DHT22;2586;48.710;9.202;2023-02-08T16:51:44;0.90;1.00
5136;DHT22;2586;48.710;9.202;2023-02-08T16:54:20;0.80;1.00
5136;DHT22;2586;48.710;9.202;2023-02-08T16:56:46;0.80;1.00
5136;DHT22;2586;48.710;9.202;2023-02-08T16:59:14;0.70;1.00
5136;DHT22;2586;48.710;9.202;2023-02-08T17:01:40;0.50;1.00
5136;DHT22;2586;48.710;9.202;2023-02-08T17:04:10;0.40;1.00
5136;DHT22;2586;48.710;9.202;2023-02-08T17:06:37;0.40;1.00
5136;DHT22;2586;48.710;9.202;2023-02-08T17:09:05;0.30;7.90
5136;DHT22;2586;48.710;9.202;2023-02-08T17:11:32;0.20;10.10
5136;DHT22;2586;48.710;9.202;2023-02-08T17:13:58;0.10;11.40
5136;DHT22;2586;48.710;9.202;2023-02-08T17:16:27;0.00;18.60
5136;DHT22;2586;48.710;9.202;2023-02-08T17:18:53;0.00;24.10
5136;DHT22;2586;48.710;9.202;2023-02-08T17:21:19;0.00;25.80
5136;DHT22;2586;48.710;9.202;2023-02-08T17:23:45;0.00;27.30
5136;DHT22;2586;48.710;9.202;2023-02-08T17:26:23;-0.10;24.80
5136;DHT22;2586;48.710;9.202;2023-02-08T17:28:53;-0.10;33.90
5136;DHT22;2586;48.710;9.202;2023-02-08T17:31:19;-0.20;38.70
5136;DHT22;2586;48.710;9.202;2023-02-08T17:33:46;-0.20;53.80
5136;DHT22;2586;48.710;9.202;2023-02-08T17:36:13;-0.20;81.60
5136;DHT22;2586;48.710;9.202;2023-02-08T17:38:40;-0.20;68.90
5136;DHT22;2586;48.710;9.202;2023-02-08T17:41:08;-0.30;73.70
5136;DHT22;2586;48.710;9.202;2023-02-08T17:43:36;-0.40;94.60
5136;DHT22;2586;48.710;9.202;2023-02-08T17:46:08;-0.40;96.00
5136;DHT22;2586;48.710;9.202;2023-02-08T17:48:33;-0.40;99.90
5136;DHT22;2586;48.710;9.202;2023-02-08T17:50:59;-0.40;99.90
5136;DHT22;2586;48.710;9.202;2023-02-08T17:53:25;-0.40;99.90
5136;DHT22;2586;48.710;9.202;2023-02-08T17:55:50;-0.40;99.90
5136;DHT22;2586;48.710;9.202;2023-02-08T17:58:16;-0.40;99.90
5136;DHT22;2586;48.710;9.202;2023-02-08T18:00:43;-0.40;99.90
5136;DHT22;2586;48.710;9.202;2023-02-08T18:03:08;-0.40;99.90
5136;DHT22;2586;48.710;9.202;2023-02-08T18:05:34;-0.50;99.90
5136;DHT22;2586;48.710;9.202;2023-02-08T18:08:01;-0.50;99.90
5136;DHT22;2586;48.710;9.202;2023-02-08T18:10:26;-0.60;99.90
5136;DHT22;2586;48.710;9.202;2023-02-08T18:12:52;-0.60;99.90
5136;DHT22;2586;48.710;9.202;2023-02-08T18:15:20;-0.60;99.90
5136;DHT22;2586;48.710;9.202;2023-02-08T18:17:46;-0.70;99.90
5136;DHT22;2586;48.710;9.202;2023-02-08T18:20:13;-0.70;99.90
5136;DHT22;2586;48.710;9.202;2023-02-08T18:22:40;-0.80;99.90
5136;DHT22;2586;48.710;9.202;2023-02-08T18:25:06;-0.80;99.90
5136;DHT22;2586;48.710;9.202;2023-02-08T18:27:32;-0.90;99.90
5136;DHT22;2586;48.710;9.202;2023-02-08T18:29:58;-0.90;99.90
5136;DHT22;2586;48.710;9.202;2023-02-08T18:32:24;-0.80;99.90
5136;DHT22;2586;48.710;9.202;2023-02-08T18:34:52;-0.80;99.90
5136;DHT22;2586;48.710;9.202;2023-02-08T18:37:18;-0.90;99.90
5136;DHT22;2586;48.710;9.202;2023-02-08T18:39:43;-0.90;99.90
5136;DHT22;2586;48.710;9.202;2023-02-08T18:42:09;-1.00;99.90
5136;DHT22;2586;48.710;9.202;2023-02-08T18:44:36;-0.90;99.90
5136;DHT22;2586;48.710;9.202;2023-02-08T18:47:06;-1.00;99.90
5136;DHT22;2586;48.710;9.202;2023-02-08T18:49:32;-1.00;99.90